sensor_id;sensor_type;location;lat;lon;timestamp;P1;durP1;ratioP1;P2;durP2;ratioP2
69985;SDS011;57328;52.054;5.294;2023-08-08T00:00:01;9.30;;;3.22;;
69985;SDS011;57328;52.054;5.294;2023-08-08T00:02:29;14.35;;;3.10;;
69985;SDS011;57328;52.054;5.294;2023-08-08T00:04:57;9.18;;;2.25;;
69985;SDS011;57328;52.054;5.294;2023-08-08T00:07:24;7.93;;;2.33;;
69985;SDS011;57328;52.054;5.294;2023-08-08T00:09:51;10.50;;;2.70;;
69985;SDS011;57328;52.054;5.294;2023-08-08T00:12:19;11.20;;;2.90;;
69985;SDS011;57328;52.054;5.294;2023-08-08T00:14:46;12.52;;;2.30;;
69985;SDS011;57328;52.054;5.294;2023-08-08T00:17:13;9.32;;;2.08;;
69985;SDS011;57328;52.054;5.294;2023-08-08T00:19:40;10.00;;;2.30;;
69985;SDS011;57328;52.054;5.294;2023-08-08T00:22:08;5.97;;;2.15;;
69985;SDS011;57328;52.054;5.294;2023-08-08T00:24:35;10.60;;;2.50;;
69985;SDS011;57328;52.054;5.294;2023-08-08T00:27:02;12.73;;;2.47;;
69985;SDS011;57328;52.054;5.294;2023-08-08T00:29:30;12.90;;;2.33;;
69985;SDS011;57328;52.054;5.294;2023-08-08T00:31:57;12.60;;;2.85;;
69985;SDS011;57328;52.054;5.294;2023-08-08T00:34:25;24.17;;;3.97;;
69985;SDS011;57328;52.054;5.294;2023-08-08T00:36:52;16.80;;;3.17;;
69985;SDS011;57328;52.054;5.294;2023-08-08T00:39:19;12.60;;;2.70;;
69985;SDS011;57328;52.054;5.294;2023-08-08T00:41:47;12.93;;;2.53;;
69985;SDS011;57328;52.054;5.294;2023-08-08T00:44:14;10.05;;;2.45;;
69985;SDS011;57328;52.054;5.294;2023-08-08T00:46:41;12.85;;;2.58;;
69985;SDS011;57328;52.054;5.294;2023-08-08T00:49:08;18.08;;;3.10;;
69985;SDS011;57328;52.054;5.294;2023-08-08T00:51:36;12.43;;;2.42;;
69985;SDS011;57328;52.054;5.294;2023-08-08T00:54:04;14.27;;;2.65;;
69985;SDS011;57328;52.054;5.294;2023-08-08T00:56:31;18.85;;;3.78;;
69985;SDS011;57328;52.054;5.294;2023-08-08T00:58:58;18.35;;;2.75;;
69985;SDS011;57328;52.054;5.294;2023-08-08T01:01:26;15.50;;;2.53;;
69985;SDS011;57328;52.054;5.294;2023-08-08T01:03:53;11.32;;;2.60;;
69985;SDS011;57328;52.054;5.294;2023-08-08T01:08:58;12.93;;;2.58;;
69985;SDS011;57328;52.054;5.294;2023-08-08T01:11:27;11.93;;;2.47;;
69985;SDS011;57328;52.054;5.294;2023-08-08T01:13:56;13.80;;;2.83;;
69985;SDS011;57328;52.054;5.294;2023-08-08T01:16:23;10.95;;;2.35;;
69985;SDS011;57328;52.054;5.294;2023-08-08T01:18:52;14.00;;;2.88;;
69985;SDS011;57328;52.054;5.294;2023-08-08T01:21:20;12.20;;;2.60;;
69985;SDS011;57328;52.054;5.294;2023-08-08T01:26:17;14.77;;;2.63;;
69985;SDS011;57328;52.054;5.294;2023-08-08T01:28:45;10.05;;;2.80;;
69985;SDS011;57328;52.054;5.294;2023-08-08T01:31:12;19.15;;;2.92;;
69985;SDS011;57328;52.054;5.294;2023-08-08T01:33:40;17.90;;;2.88;;
69985;SDS011;57328;52.054;5.294;2023-08-08T01:36:10;15.18;;;2.80;;
69985;SDS011;57328;52.054;5.294;2023-08-08T01:38:43;12.77;;;3.05;;
69985;SDS011;57328;52.054;5.294;2023-08-08T01:41:11;16.80;;;2.90;;
69985;SDS011;57328;52.054;5.294;2023-08-08T01:43:39;19.63;;;3.58;;
69985;SDS011;57328;52.054;5.294;2023-08-08T01:46:07;16.80;;;3.55;;
69985;SDS011;57328;52.054;5.294;2023-08-08T01:48:35;12.95;;;3.17;;
69985;SDS011;57328;52.054;5.294;2023-08-08T01:51:02;12.23;;;3.25;;
69985;SDS011;57328;52.054;5.294;2023-08-08T01:53:30;18.20;;;3.38;;
69985;SDS011;57328;52.054;5.294;2023-08-08T01:55:57;17.33;;;3.47;;
69985;SDS011;57328;52.054;5.294;2023-08-08T01:58:24;12.15;;;3.30;;
69985;SDS011;57328;52.054;5.294;2023-08-08T02:00:51;12.95;;;3.20;;
69985;SDS011;57328;52.054;5.294;2023-08-08T02:03:19;13.45;;;3.17;;
69985;SDS011;57328;52.054;5.294;2023-08-08T02:05:46;18.08;;;3.45;;
69985;SDS011;57328;52.054;5.294;2023-08-08T02:08:13;16.00;;;3.30;;
69985;SDS011;57328;52.054;5.294;2023-08-08T02:10:41;17.95;;;3.20;;
69985;SDS011;57328;52.054;5.294;2023-08-08T02:13:08;14.15;;;3.13;;
69985;SDS011;57328;52.054;5.294;2023-08-08T02:15:35;14.82;;;3.65;;
69985;SDS011;57328;52.054;5.294;2023-08-08T02:18:03;14.65;;;3.28;;
69985;SDS011;57328;52.054;5.294;2023-08-08T02:20:30;17.15;;;3.38;;
69985;SDS011;57328;52.054;5.294;2023-08-08T02:22:57;18.15;;;3.90;;
69985;SDS011;57328;52.054;5.294;2023-08-08T02:25:24;13.45;;;3.35;;
69985;SDS011;57328;52.054;5.294;2023-08-08T02:27:52;15.75;;;3.67;;
69985;SDS011;57328;52.054;5.294;2023-08-08T02:30:19;18.00;;;3.50;;
69985;SDS011;57328;52.054;5.294;2023-08-08T02:32:46;16.60;;;3.47;;
69985;SDS011;57328;52.054;5.294;2023-08-08T02:35:14;15.68;;;3.60;;
69985;SDS011;57328;52.054;5.294;2023-08-08T02:37:41;10.75;;;3.88;;
69985;SDS011;57328;52.054;5.294;2023-08-08T02:40:08;20.20;;;3.85;;
69985;SDS011;57328;52.054;5.294;2023-08-08T02:42:36;15.48;;;4.30;;
69985;SDS011;57328;52.054;5.294;2023-08-08T02:45:03;16.00;;;3.97;;
69985;SDS011;57328;52.054;5.294;2023-08-08T02:47:31;16.58;;;4.25;;
69985;SDS011;57328;52.054;5.294;2023-08-08T02:49:58;14.05;;;3.70;;
69985;SDS011;57328;52.054;5.294;2023-08-08T02:52:25;17.85;;;3.85;;
69985;SDS011;57328;52.054;5.294;2023-08-08T02:54:52;19.58;;;3.83;;
69985;SDS011;57328;52.054;5.294;2023-08-08T02:57:20;11.35;;;3.67;;
69985;SDS011;57328;52.054;5.294;2023-08-08T02:59:47;15.95;;;3.88;;
69985;SDS011;57328;52.054;5.294;2023-08-08T03:02:14;13.85;;;3.80;;
69985;SDS011;57328;52.054;5.294;2023-08-08T03:04:41;14.93;;;3.95;;
69985;SDS011;57328;52.054;5.294;2023-08-08T03:07:09;18.60;;;4.03;;
69985;SDS011;57328;52.054;5.294;2023-08-08T03:09:36;14.55;;;4.05;;
69985;SDS011;57328;52.054;5.294;2023-08-08T03:12:03;11.43;;;4.35;;
69985;SDS011;57328;52.054;5.294;2023-08-08T03:14:31;16.25;;;4.20;;
69985;SDS011;57328;52.054;5.294;2023-08-08T03:16:59;12.05;;;4.78;;
69985;SDS011;57328;52.054;5.294;2023-08-08T03:19:27;13.93;;;4.20;;
69985;SDS011;57328;52.054;5.294;2023-08-08T03:21:54;17.70;;;4.35;;
69985;SDS011;57328;52.054;5.294;2023-08-08T03:24:21;10.98;;;4.18;;
69985;SDS011;57328;52.054;5.294;2023-08-08T03:26:48;12.93;;;4.00;;
69985;SDS011;57328;52.054;5.294;2023-08-08T03:29:16;11.95;;;4.70;;
69985;SDS011;57328;52.054;5.294;2023-08-08T03:31:43;12.95;;;4.43;;
69985;SDS011;57328;52.054;5.294;2023-08-08T03:34:10;19.27;;;4.80;;
69985;SDS011;57328;52.054;5.294;2023-08-08T03:39:08;17.52;;;4.88;;
69985;SDS011;57328;52.054;5.294;2023-08-08T03:41:35;12.43;;;4.93;;
69985;SDS011;57328;52.054;5.294;2023-08-08T03:44:03;12.10;;;4.88;;
69985;SDS011;57328;52.054;5.294;2023-08-08T03:46:30;20.67;;;4.88;;
69985;SDS011;57328;52.054;5.294;2023-08-08T03:48:58;22.20;;;5.22;;
69985;SDS011;57328;52.054;5.294;2023-08-08T03:51:25;14.73;;;5.45;;
69985;SDS011;57328;52.054;5.294;2023-08-08T03:53:52;11.05;;;4.90;;
69985;SDS011;57328;52.054;5.294;2023-08-08T03:56:20;12.73;;;4.75;;
69985;SDS011;57328;52.054;5.294;2023-08-08T03:58:47;15.73;;;5.20;;
69985;SDS011;57328;52.054;5.294;2023-08-08T04:01:14;15.48;;;4.97;;
69985;SDS011;57328;52.054;5.294;2023-08-08T04:03:41;18.25;;;5.25;;
69985;SDS011;57328;52.054;5.294;2023-08-08T04:06:09;15.38;;;5.60;;
69985;SDS011;57328;52.054;5.294;2023-08-08T04:08:36;13.25;;;4.97;;
69985;SDS011;57328;52.054;5.294;2023-08-08T04:11:03;17.48;;;4.68;;
69985;SDS011;57328;52.054;5.294;2023-08-08T04:13:30;18.65;;;4.75;;
69985;SDS011;57328;52.054;5.294;2023-08-08T04:15:58;19.17;;;4.57;;
69985;SDS011;57328;52.054;5.294;2023-08-08T04:18:25;13.00;;;4.40;;
69985;SDS011;57328;52.054;5.294;2023-08-08T04:20:52;18.25;;;4.97;;
69985;SDS011;57328;52.054;5.294;2023-08-08T04:23:19;13.85;;;4.25;;
69985;SDS011;57328;52.054;5.294;2023-08-08T04:25:48;16.23;;;5.05;;
69985;SDS011;57328;52.054;5.294;2023-08-08T04:28:15;14.73;;;4.43;;
69985;SDS011;57328;52.054;5.294;2023-08-08T04:30:43;14.82;;;4.57;;
69985;SDS011;57328;52.054;5.294;2023-08-08T04:33:10;13.63;;;4.75;;
69985;SDS011;57328;52.054;5.294;2023-08-08T04:35:38;12.77;;;4.65;;
69985;SDS011;57328;52.054;5.294;2023-08-08T04:38:05;15.98;;;4.85;;
69985;SDS011;57328;52.054;5.294;2023-08-08T04:40:32;14.57;;;5.22;;
69985;SDS011;57328;52.054;5.294;2023-08-08T04:43:01;15.75;;;4.88;;
69985;SDS011;57328;52.054;5.294;2023-08-08T04:45:29;15.27;;;4.80;;
69985;SDS011;57328;52.054;5.294;2023-08-08T04:47:56;16.48;;;4.63;;
69985;SDS011;57328;52.054;5.294;2023-08-08T04:50:24;16.55;;;5.03;;
69985;SDS011;57328;52.054;5.294;2023-08-08T04:52:54;12.77;;;4.55;;
69985;SDS011;57328;52.054;5.294;2023-08-08T04:55:21;13.20;;;4.70;;
69985;SDS011;57328;52.054;5.294;2023-08-08T04:57:48;14.15;;;4.60;;
69985;SDS011;57328;52.054;5.294;2023-08-08T05:00:16;13.05;;;4.75;;
69985;SDS011;57328;52.054;5.294;2023-08-08T05:02:43;13.75;;;3.75;;
69985;SDS011;57328;52.054;5.294;2023-08-08T05:05:11;14.77;;;4.07;;
69985;SDS011;57328;52.054;5.294;2023-08-08T05:07:38;13.43;;;3.88;;
69985;SDS011;57328;52.054;5.294;2023-08-08T05:10:06;9.82;;;3.75;;
69985;SDS011;57328;52.054;5.294;2023-08-08T05:12:33;14.95;;;3.90;;
69985;SDS011;57328;52.054;5.294;2023-08-08T05:15:00;11.10;;;3.72;;
69985;SDS011;57328;52.054;5.294;2023-08-08T05:17:30;8.77;;;2.92;;
69985;SDS011;57328;52.054;5.294;2023-08-08T05:19:58;8.50;;;2.60;;
69985;SDS011;57328;52.054;5.294;2023-08-08T05:22:25;9.23;;;2.80;;
69985;SDS011;57328;52.054;5.294;2023-08-08T05:24:53;12.65;;;2.55;;
69985;SDS011;57328;52.054;5.294;2023-08-08T05:27:20;10.63;;;2.70;;
69985;SDS011;57328;52.054;5.294;2023-08-08T05:29:47;9.95;;;2.30;;
69985;SDS011;57328;52.054;5.294;2023-08-08T05:32:14;9.43;;;2.15;;
69985;SDS011;57328;52.054;5.294;2023-08-08T05:34:42;9.48;;;2.40;;
69985;SDS011;57328;52.054;5.294;2023-08-08T05:37:10;13.20;;;1.80;;
69985;SDS011;57328;52.054;5.294;2023-08-08T05:39:43;9.02;;;2.25;;
69985;SDS011;57328;52.054;5.294;2023-08-08T05:42:13;6.70;;;1.42;;
69985;SDS011;57328;52.054;5.294;2023-08-08T05:44:41;7.03;;;1.65;;
69985;SDS011;57328;52.054;5.294;2023-08-08T05:47:09;3.72;;;1.35;;
69985;SDS011;57328;52.054;5.294;2023-08-08T05:49:38;7.13;;;1.23;;
69985;SDS011;57328;52.054;5.294;2023-08-08T05:52:05;6.70;;;1.10;;
69985;SDS011;57328;52.054;5.294;2023-08-08T05:54:33;5.22;;;1.60;;
69985;SDS011;57328;52.054;5.294;2023-08-08T05:57:01;4.63;;;1.40;;
69985;SDS011;57328;52.054;5.294;2023-08-08T06:01:56;4.80;;;1.08;;
69985;SDS011;57328;52.054;5.294;2023-08-08T06:04:25;4.47;;;1.20;;
69985;SDS011;57328;52.054;5.294;2023-08-08T06:06:53;5.68;;;1.20;;
69985;SDS011;57328;52.054;5.294;2023-08-08T06:09:20;7.90;;;1.60;;
69985;SDS011;57328;52.054;5.294;2023-08-08T06:11:48;4.20;;;1.30;;
69985;SDS011;57328;52.054;5.294;2023-08-08T06:14:15;5.15;;;1.33;;
69985;SDS011;57328;52.054;5.294;2023-08-08T06:16:43;5.15;;;1.10;;
69985;SDS011;57328;52.054;5.294;2023-08-08T06:19:12;4.88;;;1.38;;
69985;SDS011;57328;52.054;5.294;2023-08-08T06:21:42;4.18;;;1.00;;
69985;SDS011;57328;52.054;5.294;2023-08-08T06:24:09;5.60;;;1.20;;
69985;SDS011;57328;52.054;5.294;2023-08-08T06:26:36;4.72;;;1.05;;
69985;SDS011;57328;52.054;5.294;2023-08-08T06:29:03;5.07;;;1.20;;
69985;SDS011;57328;52.054;5.294;2023-08-08T06:31:31;2.13;;;0.70;;
69985;SDS011;57328;52.054;5.294;2023-08-08T06:33:58;4.93;;;1.10;;
69985;SDS011;57328;52.054;5.294;2023-08-08T06:36:25;4.82;;;1.20;;
69985;SDS011;57328;52.054;5.294;2023-08-08T06:38:53;4.40;;;0.90;;
69985;SDS011;57328;52.054;5.294;2023-08-08T06:41:20;2.45;;;0.95;;
69985;SDS011;57328;52.054;5.294;2023-08-08T06:43:47;4.60;;;1.17;;
69985;SDS011;57328;52.054;5.294;2023-08-08T06:46:15;9.40;;;1.10;;
69985;SDS011;57328;52.054;5.294;2023-08-08T06:48:42;3.83;;;1.00;;
69985;SDS011;57328;52.054;5.294;2023-08-08T06:51:11;4.80;;;0.90;;
69985;SDS011;57328;52.054;5.294;2023-08-08T06:53:38;4.53;;;1.20;;
69985;SDS011;57328;52.054;5.294;2023-08-08T06:56:06;4.50;;;1.00;;
69985;SDS011;57328;52.054;5.294;2023-08-08T06:58:33;6.78;;;1.20;;
69985;SDS011;57328;52.054;5.294;2023-08-08T07:01:00;3.53;;;1.02;;
69985;SDS011;57328;52.054;5.294;2023-08-08T07:03:27;2.60;;;0.80;;
69985;SDS011;57328;52.054;5.294;2023-08-08T07:05:55;3.97;;;1.00;;
69985;SDS011;57328;52.054;5.294;2023-08-08T07:08:22;4.93;;;0.90;;
69985;SDS011;57328;52.054;5.294;2023-08-08T07:10:50;2.80;;;0.80;;
69985;SDS011;57328;52.054;5.294;2023-08-08T07:13:19;6.13;;;1.00;;
69985;SDS011;57328;52.054;5.294;2023-08-08T07:15:47;4.25;;;0.80;;
69985;SDS011;57328;52.054;5.294;2023-08-08T07:18:14;3.35;;;0.85;;
69985;SDS011;57328;52.054;5.294;2023-08-08T07:20:41;6.32;;;0.88;;
69985;SDS011;57328;52.054;5.294;2023-08-08T07:23:09;3.35;;;0.60;;
69985;SDS011;57328;52.054;5.294;2023-08-08T07:25:36;3.55;;;0.90;;
69985;SDS011;57328;52.054;5.294;2023-08-08T07:28:03;4.32;;;0.73;;
69985;SDS011;57328;52.054;5.294;2023-08-08T07:30:30;3.63;;;0.70;;
69985;SDS011;57328;52.054;5.294;2023-08-08T07:32:58;4.20;;;0.70;;
69985;SDS011;57328;52.054;5.294;2023-08-08T07:35:25;4.30;;;0.90;;
69985;SDS011;57328;52.054;5.294;2023-08-08T07:40:20;2.75;;;0.80;;
69985;SDS011;57328;52.054;5.294;2023-08-08T07:42:48;3.50;;;0.85;;
69985;SDS011;57328;52.054;5.294;2023-08-08T07:47:43;4.57;;;0.70;;
69985;SDS011;57328;52.054;5.294;2023-08-08T07:50:11;3.47;;;0.55;;
69985;SDS011;57328;52.054;5.294;2023-08-08T07:55:05;2.63;;;0.80;;
69985;SDS011;57328;52.054;5.294;2023-08-08T07:57:33;3.95;;;0.52;;
69985;SDS011;57328;52.054;5.294;2023-08-08T08:02:34;3.60;;;0.57;;
69985;SDS011;57328;52.054;5.294;2023-08-08T08:05:01;4.60;;;0.80;;
69985;SDS011;57328;52.054;5.294;2023-08-08T08:07:32;2.25;;;0.95;;
69985;SDS011;57328;52.054;5.294;2023-08-08T08:10:00;4.10;;;0.90;;
69985;SDS011;57328;52.054;5.294;2023-08-08T08:12:27;2.05;;;0.75;;
69985;SDS011;57328;52.054;5.294;2023-08-08T08:14:55;1.00;;;0.47;;
69985;SDS011;57328;52.054;5.294;2023-08-08T08:17:22;2.67;;;0.70;;
69985;SDS011;57328;52.054;5.294;2023-08-08T08:19:51;1.75;;;0.60;;
69985;SDS011;57328;52.054;5.294;2023-08-08T08:22:18;2.65;;;0.90;;
69985;SDS011;57328;52.054;5.294;2023-08-08T08:24:45;3.50;;;0.50;;
69985;SDS011;57328;52.054;5.294;2023-08-08T08:27:13;2.42;;;0.60;;
69985;SDS011;57328;52.054;5.294;2023-08-08T08:29:40;2.97;;;0.70;;
69985;SDS011;57328;52.054;5.294;2023-08-08T08:32:07;2.35;;;0.47;;
69985;SDS011;57328;52.054;5.294;2023-08-08T08:34:37;2.85;;;0.73;;
69985;SDS011;57328;52.054;5.294;2023-08-08T08:37:04;2.55;;;0.60;;
69985;SDS011;57328;52.054;5.294;2023-08-08T08:39:31;2.90;;;0.60;;
69985;SDS011;57328;52.054;5.294;2023-08-08T08:42:02;4.95;;;0.70;;
69985;SDS011;57328;52.054;5.294;2023-08-08T08:44:31;2.67;;;0.57;;
69985;SDS011;57328;52.054;5.294;2023-08-08T08:46:59;3.10;;;1.10;;
69985;SDS011;57328;52.054;5.294;2023-08-08T08:49:29;4.38;;;0.93;;
69985;SDS011;57328;52.054;5.294;2023-08-08T08:52:00;3.15;;;0.70;;
69985;SDS011;57328;52.054;5.294;2023-08-08T08:54:28;4.60;;;0.85;;
69985;SDS011;57328;52.054;5.294;2023-08-08T08:56:56;1.88;;;0.70;;
69985;SDS011;57328;52.054;5.294;2023-08-08T08:59:24;3.58;;;0.57;;
69985;SDS011;57328;52.054;5.294;2023-08-08T09:01:52;2.08;;;0.60;;
69985;SDS011;57328;52.054;5.294;2023-08-08T09:06:48;2.65;;;0.70;;
69985;SDS011;57328;52.054;5.294;2023-08-08T09:09:16;1.40;;;0.40;;
69985;SDS011;57328;52.054;5.294;2023-08-08T09:11:44;1.00;;;0.50;;
69985;SDS011;57328;52.054;5.294;2023-08-08T09:14:19;3.28;;;0.60;;
69985;SDS011;57328;52.054;5.294;2023-08-08T09:16:47;1.08;;;0.50;;
69985;SDS011;57328;52.054;5.294;2023-08-08T09:19:15;2.25;;;0.57;;
69985;SDS011;57328;52.054;5.294;2023-08-08T09:21:44;1.48;;;0.50;;
69985;SDS011;57328;52.054;5.294;2023-08-08T09:24:11;2.10;;;0.60;;
69985;SDS011;57328;52.054;5.294;2023-08-08T09:26:39;2.30;;;0.55;;
69985;SDS011;57328;52.054;5.294;2023-08-08T09:29:06;3.45;;;0.80;;
69985;SDS011;57328;52.054;5.294;2023-08-08T09:31:34;6.43;;;0.70;;
69985;SDS011;57328;52.054;5.294;2023-08-08T09:34:03;3.45;;;1.00;;
69985;SDS011;57328;52.054;5.294;2023-08-08T09:36:30;2.45;;;0.50;;
69985;SDS011;57328;52.054;5.294;2023-08-08T09:38:59;1.88;;;0.55;;
69985;SDS011;57328;52.054;5.294;2023-08-08T09:41:27;2.25;;;0.60;;
69985;SDS011;57328;52.054;5.294;2023-08-08T09:43:54;3.30;;;0.60;;
69985;SDS011;57328;52.054;5.294;2023-08-08T09:46:23;1.50;;;0.70;;
69985;SDS011;57328;52.054;5.294;2023-08-08T09:48:50;2.40;;;0.75;;
69985;SDS011;57328;52.054;5.294;2023-08-08T09:51:18;3.75;;;0.90;;
69985;SDS011;57328;52.054;5.294;2023-08-08T09:53:49;4.15;;;1.10;;
69985;SDS011;57328;52.054;5.294;2023-08-08T09:56:17;6.22;;;1.10;;
69985;SDS011;57328;52.054;5.294;2023-08-08T09:58:46;1.55;;;0.90;;
69985;SDS011;57328;52.054;5.294;2023-08-08T10:01:13;4.10;;;1.02;;
69985;SDS011;57328;52.054;5.294;2023-08-08T10:03:41;4.45;;;1.20;;
69985;SDS011;57328;52.054;5.294;2023-08-08T10:06:10;3.00;;;0.90;;
69985;SDS011;57328;52.054;5.294;2023-08-08T10:08:37;2.47;;;0.80;;
69985;SDS011;57328;52.054;5.294;2023-08-08T10:11:05;4.20;;;0.68;;
69985;SDS011;57328;52.054;5.294;2023-08-08T10:13:33;3.72;;;0.60;;
69985;SDS011;57328;52.054;5.294;2023-08-08T10:16:07;2.53;;;0.80;;
69985;SDS011;57328;52.054;5.294;2023-08-08T10:18:35;3.60;;;1.30;;
69985;SDS011;57328;52.054;5.294;2023-08-08T10:21:06;5.25;;;1.50;;
69985;SDS011;57328;52.054;5.294;2023-08-08T10:23:37;4.18;;;1.33;;
69985;SDS011;57328;52.054;5.294;2023-08-08T10:26:04;2.15;;;0.70;;
69985;SDS011;57328;52.054;5.294;2023-08-08T10:28:35;1.80;;;0.70;;
69985;SDS011;57328;52.054;5.294;2023-08-08T10:31:02;1.48;;;0.90;;
69985;SDS011;57328;52.054;5.294;2023-08-08T10:33:40;2.05;;;0.65;;
69985;SDS011;57328;52.054;5.294;2023-08-08T10:36:09;2.65;;;0.90;;
69985;SDS011;57328;52.054;5.294;2023-08-08T10:38:40;1.20;;;0.68;;
69985;SDS011;57328;52.054;5.294;2023-08-08T10:41:12;1.73;;;0.60;;
69985;SDS011;57328;52.054;5.294;2023-08-08T10:43:46;1.48;;;0.68;;
69985;SDS011;57328;52.054;5.294;2023-08-08T10:46:39;4.28;;;0.80;;
69985;SDS011;57328;52.054;5.294;2023-08-08T10:49:06;2.80;;;0.73;;
69985;SDS011;57328;52.054;5.294;2023-08-08T10:51:41;2.00;;;0.70;;
69985;SDS011;57328;52.054;5.294;2023-08-08T10:54:25;3.85;;;0.80;;
69985;SDS011;57328;52.054;5.294;2023-08-08T10:56:56;4.65;;;0.90;;
69985;SDS011;57328;52.054;5.294;2023-08-08T10:59:25;2.97;;;0.80;;
69985;SDS011;57328;52.054;5.294;2023-08-08T11:01:53;3.28;;;0.75;;
69985;SDS011;57328;52.054;5.294;2023-08-08T11:04:23;4.90;;;1.60;;
69985;SDS011;57328;52.054;5.294;2023-08-08T11:06:55;4.35;;;1.27;;
69985;SDS011;57328;52.054;5.294;2023-08-08T11:09:23;4.25;;;1.00;;
69985;SDS011;57328;52.054;5.294;2023-08-08T11:11:52;1.90;;;0.82;;
69985;SDS011;57328;52.054;5.294;2023-08-08T11:14:20;1.65;;;0.55;;
69985;SDS011;57328;52.054;5.294;2023-08-08T11:16:48;2.53;;;0.90;;
69985;SDS011;57328;52.054;5.294;2023-08-08T11:19:17;2.20;;;1.05;;
69985;SDS011;57328;52.054;5.294;2023-08-08T11:21:46;2.72;;;1.15;;
69985;SDS011;57328;52.054;5.294;2023-08-08T11:24:16;2.72;;;0.88;;
69985;SDS011;57328;52.054;5.294;2023-08-08T11:26:44;4.30;;;1.20;;
69985;SDS011;57328;52.054;5.294;2023-08-08T11:29:13;4.30;;;1.25;;
69985;SDS011;57328;52.054;5.294;2023-08-08T11:31:41;2.78;;;0.88;;
69985;SDS011;57328;52.054;5.294;2023-08-08T11:34:08;3.08;;;1.20;;
69985;SDS011;57328;52.054;5.294;2023-08-08T11:36:39;4.85;;;0.93;;
69985;SDS011;57328;52.054;5.294;2023-08-08T11:39:06;2.55;;;0.90;;
69985;SDS011;57328;52.054;5.294;2023-08-08T11:41:36;1.75;;;0.80;;
69985;SDS011;57328;52.054;5.294;2023-08-08T11:44:06;2.30;;;0.70;;
69985;SDS011;57328;52.054;5.294;2023-08-08T11:46:35;1.48;;;0.60;;
69985;SDS011;57328;52.054;5.294;2023-08-08T11:49:15;3.60;;;0.70;;
69985;SDS011;57328;52.054;5.294;2023-08-08T11:51:44;2.25;;;0.60;;
69985;SDS011;57328;52.054;5.294;2023-08-08T11:54:15;3.05;;;0.70;;
69985;SDS011;57328;52.054;5.294;2023-08-08T11:56:42;1.65;;;0.70;;
69985;SDS011;57328;52.054;5.294;2023-08-08T11:59:12;1.70;;;0.63;;
69985;SDS011;57328;52.054;5.294;2023-08-08T12:01:41;2.63;;;0.60;;
69985;SDS011;57328;52.054;5.294;2023-08-08T12:04:10;3.10;;;0.80;;
69985;SDS011;57328;52.054;5.294;2023-08-08T12:06:37;5.43;;;0.93;;
69985;SDS011;57328;52.054;5.294;2023-08-08T12:09:05;3.80;;;0.70;;
69985;SDS011;57328;52.054;5.294;2023-08-08T12:11:36;2.00;;;0.90;;
69985;SDS011;57328;52.054;5.294;2023-08-08T12:14:04;2.47;;;0.93;;
69985;SDS011;57328;52.054;5.294;2023-08-08T12:16:31;2.55;;;0.73;;
69985;SDS011;57328;52.054;5.294;2023-08-08T12:19:02;2.28;;;0.80;;
69985;SDS011;57328;52.054;5.294;2023-08-08T12:21:30;3.70;;;1.10;;
69985;SDS011;57328;52.054;5.294;2023-08-08T12:23:59;2.75;;;0.90;;
69985;SDS011;57328;52.054;5.294;2023-08-08T12:26:26;1.70;;;0.80;;
69985;SDS011;57328;52.054;5.294;2023-08-08T12:28:54;3.88;;;0.80;;
69985;SDS011;57328;52.054;5.294;2023-08-08T12:31:24;1.58;;;0.80;;
69985;SDS011;57328;52.054;5.294;2023-08-08T12:33:52;2.50;;;1.02;;
69985;SDS011;57328;52.054;5.294;2023-08-08T12:36:20;2.97;;;0.90;;
69985;SDS011;57328;52.054;5.294;2023-08-08T12:38:48;4.50;;;0.90;;
69985;SDS011;57328;52.054;5.294;2023-08-08T12:41:15;1.92;;;0.82;;
69985;SDS011;57328;52.054;5.294;2023-08-08T12:43:46;2.08;;;0.60;;
69985;SDS011;57328;52.054;5.294;2023-08-08T12:46:13;1.83;;;0.70;;
69985;SDS011;57328;52.054;5.294;2023-08-08T12:48:44;3.53;;;0.70;;
69985;SDS011;57328;52.054;5.294;2023-08-08T12:51:12;2.53;;;0.82;;
69985;SDS011;57328;52.054;5.294;2023-08-08T12:53:39;2.80;;;1.30;;
69985;SDS011;57328;52.054;5.294;2023-08-08T12:56:07;1.40;;;0.60;;
69985;SDS011;57328;52.054;5.294;2023-08-08T12:58:37;1.95;;;0.60;;
69985;SDS011;57328;52.054;5.294;2023-08-08T13:01:07;3.03;;;0.75;;
69985;SDS011;57328;52.054;5.294;2023-08-08T13:03:34;2.35;;;0.70;;
69985;SDS011;57328;52.054;5.294;2023-08-08T13:06:01;2.63;;;0.60;;
69985;SDS011;57328;52.054;5.294;2023-08-08T13:08:29;2.35;;;0.63;;
69985;SDS011;57328;52.054;5.294;2023-08-08T13:10:59;3.90;;;0.98;;
69985;SDS011;57328;52.054;5.294;2023-08-08T13:13:29;3.80;;;1.08;;
69985;SDS011;57328;52.054;5.294;2023-08-08T13:15:57;4.45;;;0.77;;
69985;SDS011;57328;52.054;5.294;2023-08-08T13:18:24;2.30;;;0.70;;
69985;SDS011;57328;52.054;5.294;2023-08-08T13:20:51;4.45;;;1.00;;
69985;SDS011;57328;52.054;5.294;2023-08-08T13:23:18;2.47;;;0.68;;
69985;SDS011;57328;52.054;5.294;2023-08-08T13:25:46;3.15;;;0.70;;
69985;SDS011;57328;52.054;5.294;2023-08-08T13:28:14;5.70;;;0.93;;
69985;SDS011;57328;52.054;5.294;2023-08-08T13:30:42;4.88;;;0.98;;
69985;SDS011;57328;52.054;5.294;2023-08-08T13:33:09;3.88;;;0.70;;
69985;SDS011;57328;52.054;5.294;2023-08-08T13:35:36;2.47;;;0.75;;
69985;SDS011;57328;52.054;5.294;2023-08-08T13:38:04;2.58;;;0.80;;
69985;SDS011;57328;52.054;5.294;2023-08-08T13:40:31;3.83;;;0.90;;
69985;SDS011;57328;52.054;5.294;2023-08-08T13:42:58;2.40;;;0.73;;
69985;SDS011;57328;52.054;5.294;2023-08-08T13:45:26;4.72;;;0.70;;
69985;SDS011;57328;52.054;5.294;2023-08-08T13:47:53;2.42;;;0.85;;
69985;SDS011;57328;52.054;5.294;2023-08-08T13:50:20;3.65;;;1.00;;
69985;SDS011;57328;52.054;5.294;2023-08-08T13:52:48;5.15;;;0.70;;
69985;SDS011;57328;52.054;5.294;2023-08-08T13:55:15;6.15;;;0.93;;
69985;SDS011;57328;52.054;5.294;2023-08-08T13:57:42;4.00;;;1.00;;
69985;SDS011;57328;52.054;5.294;2023-08-08T14:00:10;5.03;;;0.88;;
69985;SDS011;57328;52.054;5.294;2023-08-08T14:02:39;3.75;;;0.93;;
69985;SDS011;57328;52.054;5.294;2023-08-08T14:05:06;3.88;;;0.98;;
69985;SDS011;57328;52.054;5.294;2023-08-08T14:07:34;3.78;;;1.00;;
69985;SDS011;57328;52.054;5.294;2023-08-08T14:10:02;5.07;;;0.98;;
69985;SDS011;57328;52.054;5.294;2023-08-08T14:12:30;4.18;;;1.17;;
69985;SDS011;57328;52.054;5.294;2023-08-08T14:14:57;4.55;;;1.70;;
69985;SDS011;57328;52.054;5.294;2023-08-08T14:17:25;5.82;;;1.80;;
69985;SDS011;57328;52.054;5.294;2023-08-08T14:19:52;6.50;;;1.60;;
69985;SDS011;57328;52.054;5.294;2023-08-08T14:22:20;3.95;;;1.38;;
69985;SDS011;57328;52.054;5.294;2023-08-08T14:24:47;4.07;;;1.23;;
69985;SDS011;57328;52.054;5.294;2023-08-08T14:27:14;3.65;;;1.00;;
69985;SDS011;57328;52.054;5.294;2023-08-08T14:29:42;3.72;;;1.00;;
69985;SDS011;57328;52.054;5.294;2023-08-08T14:32:09;4.68;;;1.00;;
69985;SDS011;57328;52.054;5.294;2023-08-08T14:34:37;2.65;;;1.02;;
69985;SDS011;57328;52.054;5.294;2023-08-08T14:37:05;1.40;;;0.75;;
69985;SDS011;57328;52.054;5.294;2023-08-08T14:39:33;3.88;;;1.00;;
69985;SDS011;57328;52.054;5.294;2023-08-08T14:42:00;3.30;;;0.90;;
69985;SDS011;57328;52.054;5.294;2023-08-08T14:44:29;3.22;;;0.95;;
69985;SDS011;57328;52.054;5.294;2023-08-08T14:46:59;4.82;;;1.30;;
69985;SDS011;57328;52.054;5.294;2023-08-08T14:49:27;3.17;;;1.10;;
69985;SDS011;57328;52.054;5.294;2023-08-08T14:51:54;2.83;;;0.90;;
69985;SDS011;57328;52.054;5.294;2023-08-08T14:54:22;3.70;;;1.20;;
69985;SDS011;57328;52.054;5.294;2023-08-08T14:56:50;5.45;;;0.90;;
69985;SDS011;57328;52.054;5.294;2023-08-08T14:59:17;4.10;;;1.02;;
69985;SDS011;57328;52.054;5.294;2023-08-08T15:01:44;2.67;;;1.13;;
69985;SDS011;57328;52.054;5.294;2023-08-08T15:04:14;4.47;;;1.23;;
69985;SDS011;57328;52.054;5.294;2023-08-08T15:06:42;4.80;;;1.65;;
69985;SDS011;57328;52.054;5.294;2023-08-08T15:09:09;5.03;;;1.58;;